Time;durP1;ratioP1;P1;durP2;ratioP2;P2;SDS_P1;SDS_P2;PMS_P1;PMS_P2;Temp;Humidity;BMP_temperature;BMP_pressure;BME280_temperature;BME280_humidity;BME280_pressure;Samples;Min_cycle;Max_cycle;Signal;HPM_P1;HPM_P2
2022/06/16 00:00:58;;;;;;;1.08;0.98;;;17.10;57.70;17.00;100616.00;;;;5015026;27;87721;-66
2022/06/16 00:03:24;;;;;;;1.08;1.00;;;17.00;58.50;16.90;100605.00;;;;5010261;27;88528;-66
2022/06/16 00:05:52;;;;;;;1.83;1.73;;;16.80;58.70;16.80;100605.00;;;;4995770;28;88543;-67
2022/06/16 00:08:19;;;;;;;2.95;1.23;;;16.70;58.80;16.70;100610.00;;;;4996004;27;88013;-66
2022/06/16 00:13:36;;;;;;;1.90;1.33;;;16.50;59.10;16.50;100601.00;;;;5008023;27;89013;-66
2022/06/16 00:16:05;;;;;;;1.60;1.20;;;16.40;59.20;16.40;100607.00;;;;4978050;27;88010;-66
2022/06/16 00:18:30;;;;;;;0.88;0.88;;;16.40;59.60;16.40;100611.00;;;;5012213;27;87690;-66
2022/06/16 00:20:56;;;;;;;0.98;0.90;;;16.30;59.60;16.30;100600.00;;;;4979854;28;87757;-66
2022/06/16 00:23:22;;;;;;;1.45;1.08;;;16.30;59.80;16.30;100607.00;;;;5001677;27;115966;-66
2022/06/16 00:25:48;;;;;;;1.73;1.02;;;16.20;60.00;16.20;100602.00;;;;5018776;27;87961;-66
2022/06/16 00:28:14;;;;;;;0.77;0.55;;;16.20;60.20;16.20;100603.00;;;;5014311;27;87902;-67
2022/06/16 00:30:40;;;;;;;3.00;1.20;;;16.10;60.20;16.20;100608.00;;;;4997933;28;108995;-66
2022/06/16 00:33:06;;;;;;;7.03;1.10;;;16.10;60.40;16.20;100612.00;;;;5000045;27;88082;-66
2022/06/16 00:35:32;;;;;;;3.40;1.55;;;16.10;60.70;16.20;100601.00;;;;5018169;27;88700;-67
2022/06/16 00:37:58;;;;;;;1.60;1.50;;;16.10;60.90;16.10;100606.00;;;;5014976;27;88763;-67
2022/06/16 00:40:24;;;;;;;2.35;1.55;;;16.00;61.10;16.00;100609.00;;;;5018660;27;98717;-67
2022/06/16 00:42:50;;;;;;;1.48;0.90;;;16.00;61.90;16.00;100601.00;;;;5022733;27;93174;-66
2022/06/16 00:45:55;;;;;;;1.17;1.08;;;15.90;62.40;15.80;100597.00;;;;4999194;27;88705;-66
2022/06/16 00:48:49;;;;;;;1.55;1.20;;;15.80;62.70;15.70;100586.00;;;;4996517;27;88902;-66
2022/06/16 00:51:26;;;;;;;0.95;0.95;;;15.70;63.30;15.60;100593.00;;;;4999667;27;97634;-66
2022/06/16 00:53:58;;;;;;;1.50;1.13;;;15.60;63.70;15.60;100586.00;;;;4998221;27;112329;-65
2022/06/16 00:56:24;;;;;;;2.28;1.80;;;15.50;63.90;15.50;100591.00;;;;4996847;27;109359;-67
2022/06/16 00:59:01;;;;;;;1.05;1.00;;;15.50;64.40;15.40;100586.00;;;;5010092;27;87733;-67
2022/06/16 01:01:27;;;;;;;3.57;1.37;;;15.40;65.10;15.30;100574.00;;;;4998664;28;87596;-66
2022/06/16 01:06:39;;;;;;;1.07;1.00;;;15.20;66.70;15.10;100573.00;;;;5000195;27;88670;-67
2022/06/16 01:09:12;;;;;;;1.35;1.20;;;15.10;67.10;15.00;100565.00;;;;5002320;27;110594;-67
2022/06/16 01:15:11;;;;;;;1.23;1.13;;;15.00;68.20;14.90;100567.00;;;;5015421;27;88239;-66
2022/06/16 01:18:06;;;;;;;1.50;1.23;;;14.90;68.50;14.90;100562.00;;;;5006904;27;97667;-66
2022/06/16 01:20:43;;;;;;;1.25;1.08;;;14.80;69.00;14.90;100564.00;;;;5004086;27;87745;-66
2022/06/16 01:23:39;;;;;;;2.57;1.23;;;14.80;69.60;14.80;100566.00;;;;4980275;27;87248;-66
2022/06/16 01:26:34;;;;;;;1.00;0.90;;;14.80;70.10;14.80;100559.00;;;;4998855;27;88254;-66
2022/06/16 01:29:15;;;;;;;1.23;1.13;;;14.70;70.60;14.80;100569.00;;;;4995897;27;110266;-66
2022/06/16 01:31:53;;;;;;;0.90;0.90;;;14.70;71.40;14.70;100563.00;;;;5017584;27;89981;-66
2022/06/16 01:35:01;;;;;;;1.53;1.43;;;14.70;72.10;14.70;100564.00;;;;5017204;27;87625;-66
2022/06/16 01:38:04;;;;;;;1.10;1.00;;;14.70;72.60;14.70;100562.00;;;;5017229;27;88564;-66
2022/06/16 01:40:58;;;;;;;1.60;1.40;;;14.60;72.80;14.70;100563.00;;;;5018021;27;87951;-66
2022/06/16 01:43:29;;;;;;;2.30;1.40;;;14.60;73.00;14.70;100556.00;;;;5012582;27;87814;-66
2022/06/16 01:46:09;;;;;;;2.20;1.60;;;14.60;73.70;14.70;100558.00;;;;4995400;28;87832;-66
2022/06/16 01:48:36;;;;;;;1.03;1.00;;;14.70;74.10;14.70;100549.00;;;;4980028;28;112412;-66
2022/06/16 01:51:25;;;;;;;1.07;0.90;;;14.60;74.40;14.70;100547.00;;;;4997888;27;116671;-66
2022/06/16 01:54:12;;;;;;;1.73;1.53;;;14.70;74.80;14.70;100550.00;;;;4999891;27;87797;-66
2022/06/16 01:56:48;;;;;;;1.63;1.33;;;14.60;75.20;14.60;100552.00;;;;4995620;28;87839;-66
2022/06/16 01:59:23;;;;;;;2.23;1.60;;;14.60;75.80;14.60;100543.00;;;;5001993;27;95634;-66
2022/06/16 02:01:57;;;;;;;2.40;1.53;;;14.60;76.20;14.60;100541.00;;;;4996205;27;89504;-66
2022/06/16 02:04:43;;;;;;;0.80;0.80;;;14.50;76.70;14.50;100532.00;;;;5004105;27;94261;-66
2022/06/16 02:07:18;;;;;;;0.97;0.70;;;14.50;77.50;14.50;100534.00;;;;4995252;28;87782;-66
2022/06/16 02:09:48;;;;;;;1.77;1.67;;;14.50;77.90;14.60;100528.00;;;;5010695;27;95806;-66
2022/06/16 02:15:37;;;;;;;2.90;1.60;;;14.50;78.70;14.50;100537.00;;;;5012575;27;87906;-66
2022/06/16 02:18:09;;;;;;;1.07;1.00;;;14.50;78.90;14.60;100543.00;;;;5017901;27;87193;-65
2022/06/16 02:20:52;;;;;;;2.10;1.60;;;14.50;79.30;14.50;100544.00;;;;5016157;27;104872;-65
2022/06/16 02:23:19;;;;;;;1.67;1.50;;;14.50;79.60;14.50;100542.00;;;;5010964;27;87839;-65
2022/06/16 02:25:47;;;;;;;1.83;1.10;;;14.50;79.80;14.50;100539.00;;;;4996259;27;88743;-65
2022/06/16 02:28:15;;;;;;;1.20;1.10;;;14.50;80.10;14.50;100539.00;;;;5014025;27;88092;-66
2022/06/16 02:31:17;;;;;;;1.70;1.60;;;14.50;80.50;14.50;100538.00;;;;5016399;27;88102;-66
2022/06/16 02:34:12;;;;;;;1.70;1.47;;;14.40;80.70;14.50;100538.00;;;;5010095;27;87710;-65
2022/06/16 02:37:08;;;;;;;2.60;1.57;;;14.40;81.00;14.50;100535.00;;;;4994930;28;87799;-65
2022/06/16 02:40:05;;;;;;;1.83;1.73;;;14.40;81.20;14.40;100544.00;;;;5011889;27;87700;-65
2022/06/16 02:43:05;;;;;;;1.40;1.20;;;14.40;81.90;14.40;100535.00;;;;5013604;27;88149;-67
2022/06/16 02:45:46;;;;;;;2.00;1.73;;;14.30;82.30;14.40;100528.00;;;;5014405;27;100444;-67
2022/06/16 02:48:43;;;;;;;1.30;1.20;;;14.30;82.90;14.40;100527.00;;;;5011168;27;100037;-68
2022/06/16 02:51:29;;;;;;;2.00;1.67;;;14.30;83.20;14.40;100529.00;;;;5013796;27;100969;-67
2022/06/16 02:54:32;;;;;;;1.20;1.13;;;14.30;83.70;14.40;100526.00;;;;4999548;27;109916;-67
2022/06/16 02:57:29;;;;;;;1.30;1.20;;;14.30;84.10;14.40;100526.00;;;;5015045;27;87908;-67
2022/06/16 03:00:00;;;;;;;3.13;2.60;;;14.30;84.60;14.40;100518.00;;;;5009561;27;102038;-67
2022/06/16 03:02:27;;;;;;;2.50;1.27;;;14.30;85.40;14.40;100525.00;;;;4996460;27;88070;-67
2022/06/16 03:04:56;;;;;;;1.70;1.50;;;14.30;85.90;14.40;100529.00;;;;5014730;27;88269;-67
2022/06/16 03:07:23;;;;;;;1.43;1.30;;;14.30;86.20;14.40;100526.00;;;;5016446;27;87798;-67
2022/06/16 03:09:49;;;;;;;4.40;1.90;;;14.30;86.30;14.40;100517.00;;;;4999841;27;87823;-67
2022/06/16 03:12:15;;;;;;;1.33;1.23;;;14.30;86.80;14.40;100515.00;;;;5003067;27;87261;-66
2022/06/16 03:14:42;;;;;;;3.57;2.00;;;14.30;87.20;14.40;100506.00;;;;5016705;27;88663;-67
2022/06/16 03:17:15;;;;;;;3.83;1.83;;;14.30;87.80;14.40;100512.00;;;;5015025;27;88174;-67
2022/06/16 03:19:59;;;;;;;1.80;1.70;;;14.30;88.10;14.40;100511.00;;;;5015056;27;89362;-67
2022/06/16 03:22:25;;;;;;;2.70;2.27;;;14.30;88.00;14.40;100511.00;;;;5014472;27;87674;-67
2022/06/16 03:24:51;;;;;;;2.13;1.40;;;14.30;88.20;14.50;100511.00;;;;5014935;27;114398;-67
2022/06/16 03:27:16;;;;;;;3.07;2.20;;;14.30;88.20;14.50;100511.00;;;;5015843;27;88586;-68
2022/06/16 03:29:42;;;;;;;3.00;1.67;;;14.40;88.50;14.50;100516.00;;;;5014390;27;109914;-67
2022/06/16 03:32:08;;;;;;;2.00;1.77;;;14.40;88.50;14.50;100514.00;;;;5009380;27;108887;-67
2022/06/16 03:34:34;;;;;;;2.10;1.50;;;14.40;88.50;14.50;100513.00;;;;5008521;27;117796;-67
2022/06/16 03:36:59;;;;;;;1.30;1.20;;;14.40;88.70;14.60;100511.00;;;;5014926;27;118114;-66
2022/06/16 03:39:25;;;;;;;3.03;1.48;;;14.50;88.90;14.60;100512.00;;;;5015741;27;88070;-66
2022/06/16 03:41:51;;;;;;;2.13;1.53;;;14.50;89.10;14.60;100511.00;;;;5013244;27;108862;-67
2022/06/16 03:44:19;;;;;;;3.80;2.22;;;14.50;89.00;14.60;100519.00;;;;4998190;27;113057;-67
2022/06/16 03:46:45;;;;;;;2.07;1.87;;;14.50;89.10;14.70;100514.00;;;;4995931;28;118865;-66
2022/06/16 03:49:11;;;;;;;2.40;1.63;;;14.60;89.10;14.70;100512.00;;;;5000988;27;109866;-65
2022/06/16 03:51:36;;;;;;;3.00;2.17;;;14.60;89.00;14.80;100519.00;;;;4994030;27;107628;-66
2022/06/16 03:54:02;;;;;;;1.97;1.57;;;14.60;89.20;14.90;100524.00;;;;5013462;27;117501;-66
2022/06/16 03:56:28;;;;;;;1.67;1.57;;;14.70;89.60;14.90;100536.00;;;;5015636;27;88760;-66
2022/06/16 03:58:55;;;;;;;1.53;1.37;;;14.80;90.00;15.00;100540.00;;;;5005563;27;110707;-67
2022/06/16 04:01:21;;;;;;;3.33;2.00;;;14.90;90.10;15.10;100548.00;;;;4993901;28;95869;-66
2022/06/16 04:04:02;;;;;;;1.70;1.43;;;14.90;90.30;15.10;100548.00;;;;4996969;27;88111;-65
2022/06/16 04:06:36;;;;;;;2.03;1.63;;;15.00;90.40;15.20;100543.00;;;;4995462;28;88222;-66
2022/06/16 04:09:04;;;;;;;2.03;1.70;;;15.10;90.60;15.30;100556.00;;;;4998801;27;88783;-65
2022/06/16 04:11:30;;;;;;;2.25;1.55;;;15.10;90.60;15.30;100554.00;;;;4992840;27;87861;-66
2022/06/16 04:14:02;;;;;;;2.22;1.90;;;15.20;90.60;15.40;100556.00;;;;4999752;27;88372;-65
2022/06/16 04:16:43;;;;;;;1.35;1.20;;;15.30;90.60;15.50;100551.00;;;;4995475;27;88041;-66
2022/06/16 04:19:12;;;;;;;3.03;1.80;;;15.30;90.70;15.60;100548.00;;;;5004068;27;87769;-65
2022/06/16 04:21:42;;;;;;;2.08;1.50;;;15.40;90.60;15.70;100549.00;;;;4998599;27;87738;-66
2022/06/16 04:24:09;;;;;;;2.63;1.90;;;15.50;90.70;15.80;100559.00;;;;4995226;27;88243;-66
2022/06/16 04:26:37;;;;;;;2.30;1.83;;;15.60;90.80;15.90;100559.00;;;;5000239;27;95236;-65
2022/06/16 04:29:04;;;;;;;2.25;1.92;;;15.70;90.90;16.10;100555.00;;;;5005270;27;87840;-65
2022/06/16 04:31:31;;;;;;;3.28;1.65;;;15.90;91.00;16.20;100552.00;;;;4995209;28;87726;-65
2022/06/16 04:33:58;;;;;;;4.63;1.80;;;16.00;91.00;16.40;100559.00;;;;5012852;27;89380;-65
2022/06/16 04:36:24;;;;;;;1.63;1.42;;;16.20;91.00;16.50;100565.00;;;;5015424;27;104551;-65
2022/06/16 04:38:50;;;;;;;1.65;1.30;;;16.30;91.00;16.60;100565.00;;;;5014346;27;98901;-64
2022/06/16 04:41:17;;;;;;;1.77;1.33;;;16.40;90.90;16.70;100568.00;;;;5015009;27;107894;-65
2022/06/16 04:43:43;;;;;;;1.88;1.33;;;16.50;90.90;16.80;100568.00;;;;4998351;27;102017;-65
2022/06/16 04:46:12;;;;;;;3.25;2.10;;;16.60;90.90;16.80;100569.00;;;;4995666;27;109189;-66
2022/06/16 04:48:37;;;;;;;2.10;1.35;;;16.70;90.80;16.90;100573.00;;;;4994042;27;101563;-65
2022/06/16 04:51:03;;;;;;;2.90;1.30;;;16.70;90.70;16.90;100565.00;;;;4994094;27;107720;-66
2022/06/16 04:53:33;;;;;;;1.40;1.30;;;16.80;90.70;17.00;100567.00;;;;5007685;27;88887;-65
2022/06/16 04:56:01;;;;;;;1.20;1.10;;;16.80;90.80;17.10;100564.00;;;;5013757;27;104250;-66
2022/06/16 04:58:29;;;;;;;1.75;1.27;;;16.90;90.70;17.20;100549.00;;;;5008783;27;89346;-66
2022/06/16 05:00:56;;;;;;;2.50;1.67;;;17.00;90.80;17.30;100554.00;;;;4994985;27;87413;-66
2022/06/16 05:03:27;;;;;;;2.60;1.48;;;17.10;90.80;17.50;100557.00;;;;5002984;27;87720;-65
2022/06/16 05:05:55;;;;;;;2.00;1.80;;;17.30;90.70;17.80;100565.00;;;;5019570;27;89060;-65
2022/06/16 05:08:22;;;;;;;2.85;1.67;;;17.50;90.60;18.10;100564.00;;;;5005156;27;87764;-65
2022/06/16 05:10:50;;;;;;;4.00;1.35;;;17.80;90.30;18.30;100563.00;;;;5015116;27;101689;-66
2022/06/16 05:13:17;;;;;;;3.15;1.50;;;18.00;90.00;18.50;100568.00;;;;5006122;27;88244;-65
2022/06/16 05:15:43;;;;;;;1.20;1.10;;;18.20;89.40;18.60;100569.00;;;;4998686;28;88866;-65
2022/06/16 05:18:14;;;;;;;9.18;1.65;;;18.40;88.50;18.80;100559.00;;;;4998883;27;87723;-66
2022/06/16 05:20:43;;;;;;;5.00;1.67;;;18.50;88.00;18.80;100563.00;;;;4997908;28;87886;-66
2022/06/16 05:23:10;;;;;;;1.88;1.33;;;18.60;87.50;18.90;100562.00;;;;5004417;27;89324;-66
2022/06/16 05:25:36;;;;;;;1.95;0.90;;;18.70;87.00;19.10;100568.00;;;;4986674;28;91312;-66
2022/06/16 05:28:04;;;;;;;1.85;1.35;;;18.80;86.30;19.20;100571.00;;;;4997137;27;87830;-66
2022/06/16 05:30:30;;;;;;;1.45;1.17;;;19.00;85.70;19.50;100579.00;;;;4998208;27;88347;-66
2022/06/16 05:32:56;;;;;;;1.63;1.52;;;19.20;84.90;19.70;100586.00;;;;5002819;27;115966;-67
2022/06/16 05:35:22;;;;;;;2.35;1.45;;;19.40;84.10;20.00;100590.00;;;;5017279;27;114771;-66
2022/06/16 05:37:48;;;;;;;1.80;1.52;;;19.60;83.30;20.20;100580.00;;;;5017891;27;90911;-67
2022/06/16 05:40:13;;;;;;;1.25;1.15;;;19.90;83.20;20.40;100586.00;;;;5016728;27;86946;-66
2022/06/16 05:42:39;;;;;;;2.70;1.58;;;20.10;81.40;20.50;100581.00;;;;5012691;27;100535;-66
2022/06/16 05:45:06;;;;;;;5.07;1.67;;;20.30;80.60;20.70;100578.00;;;;4998190;27;88276;-66
2022/06/16 05:47:31;;;;;;;1.48;1.38;;;20.40;79.80;20.80;100580.00;;;;4998395;27;88807;-66
2022/06/16 05:49:58;;;;;;;1.52;1.42;;;20.50;78.90;20.90;100583.00;;;;4999534;27;94421;-66
2022/06/16 05:52:24;;;;;;;1.60;1.50;;;20.60;78.30;20.90;100586.00;;;;4999172;27;117128;-66
2022/06/16 05:54:49;;;;;;;1.92;1.20;;;20.70;77.60;21.10;100593.00;;;;5015404;27;93985;-65
2022/06/16 05:57:15;;;;;;;2.33;1.10;;;20.80;76.80;21.20;100605.00;;;;5016842;27;112115;-66
2022/06/16 05:59:41;;;;;;;1.75;1.58;;;21.00;76.10;21.40;100597.00;;;;5000453;27;109001;-66
2022/06/16 06:02:14;;;;;;;3.90;1.55;;;21.10;75.70;21.70;100605.00;;;;4997297;28;88190;-66
2022/06/16 06:04:40;;;;;;;1.30;1.20;;;21.30;74.90;21.90;100603.00;;;;4999566;27;87020;-67
2022/06/16 06:07:06;;;;;;;3.42;1.50;;;21.60;74.90;22.20;100613.00;;;;4995776;28;87933;-66
2022/06/16 06:17:49;;;;;;;5.50;1.92;;;22.70;69.20;23.10;100618.00;;;;4994219;27;87617;-65
2022/06/16 06:20:15;;;;;;;1.58;1.48;;;22.90;68.60;23.10;100618.00;;;;4994491;28;108594;-65
2022/06/16 06:22:40;;;;;;;2.80;1.55;;;22.90;67.40;23.10;100617.00;;;;4996158;28;113581;-65
2022/06/16 06:25:07;;;;;;;3.17;1.45;;;22.90;66.90;23.20;100614.00;;;;5014478;27;116925;-65
2022/06/16 06:27:40;;;;;;;2.22;1.67;;;23.00;66.60;23.40;100613.00;;;;5010378;27;88822;-65
2022/06/16 06:30:19;;;;;;;1.77;1.67;;;23.00;65.80;23.50;100617.00;;;;4979233;28;86973;-65
2022/06/16 06:32:46;;;;;;;2.13;1.67;;;23.20;64.60;23.60;100615.00;;;;4997243;27;88601;-65
2022/06/16 06:35:13;;;;;;;2.80;1.63;;;23.30;63.80;23.80;100610.00;;;;5017449;27;87934;-65
2022/06/16 06:37:50;;;;;;;2.67;1.65;;;23.50;63.30;24.00;100607.00;;;;4996734;27;88779;-66
2022/06/16 06:40:42;;;;;;;2.22;1.67;;;23.70;62.30;24.10;100610.00;;;;4996638;27;88055;-65
2022/06/16 06:43:07;;;;;;;1.63;1.40;;;23.90;61.40;24.30;100618.00;;;;5012129;27;95765;-65
2022/06/16 06:45:34;;;;;;;4.18;1.77;;;24.00;60.80;24.50;100631.00;;;;5016189;27;88409;-65
2022/06/16 06:48:01;;;;;;;1.40;1.30;;;24.10;59.80;24.70;100626.00;;;;5011892;27;100109;-65
2022/06/16 06:50:33;;;;;;;2.10;1.45;;;24.30;60.10;24.80;100627.00;;;;5016812;27;87564;-66
2022/06/16 06:52:59;;;;;;;1.52;1.42;;;24.50;59.00;24.90;100628.00;;;;5009059;27;88298;-66
2022/06/16 06:55:24;;;;;;;1.67;1.25;;;24.60;58.70;25.00;100626.00;;;;4997089;27;87374;-66
2022/06/16 06:57:52;;;;;;;1.20;1.10;;;24.70;58.30;25.00;100627.00;;;;4995638;27;110677;-67
2022/06/16 07:00:20;;;;;;;1.40;1.30;;;24.80;58.00;25.00;100634.00;;;;4994152;28;87607;-66
2022/06/16 07:02:46;;;;;;;1.77;1.45;;;24.80;58.00;25.00;100640.00;;;;4995597;28;91115;-66
2022/06/16 07:05:12;;;;;;;1.35;1.20;;;24.80;58.00;25.00;100640.00;;;;4996102;27;117308;-68
2022/06/16 07:07:38;;;;;;;2.67;1.30;;;24.80;58.10;25.00;100658.00;;;;4995011;27;110005;-66
2022/06/16 07:10:08;;;;;;;1.50;1.40;;;24.70;58.10;24.90;100666.00;;;;5003027;27;94812;-65
2022/06/16 07:12:34;;;;;;;1.45;1.35;;;24.60;58.20;24.80;100656.00;;;;4995647;28;89761;-65
2022/06/16 07:15:01;;;;;;;2.33;1.55;;;24.60;58.30;24.70;100660.00;;;;4995696;27;104206;-65
2022/06/16 07:17:27;;;;;;;2.03;1.23;;;24.50;58.40;24.60;100670.00;;;;4996866;27;102677;-65
2022/06/16 07:19:53;;;;;;;4.85;1.40;;;24.40;58.40;24.50;100684.00;;;;4995220;28;108734;-65
2022/06/16 07:22:19;;;;;;;1.38;1.20;;;24.30;58.10;24.30;100685.00;;;;4996437;28;87882;-65
2022/06/16 07:24:45;;;;;;;1.73;1.50;;;24.20;58.00;24.20;100681.00;;;;5010105;27;106518;-66
2022/06/16 07:27:12;;;;;;;2.58;1.38;;;24.00;58.00;24.00;100676.00;;;;5014061;27;96648;-65
2022/06/16 07:29:37;;;;;;;2.13;1.55;;;23.80;58.10;23.80;100685.00;;;;5002273;27;87787;-65
2022/06/16 07:32:05;;;;;;;3.38;1.20;;;23.70;58.30;23.70;100687.00;;;;4995864;28;88279;-66
2022/06/16 07:34:31;;;;;;;3.15;1.40;;;23.60;58.60;23.60;100685.00;;;;5000664;27;88221;-65
2022/06/16 07:36:56;;;;;;;1.63;1.30;;;23.40;58.60;23.50;100699.00;;;;4995656;28;87788;-66
2022/06/16 07:39:22;;;;;;;1.60;1.45;;;23.40;58.80;23.50;100693.00;;;;4995582;27;107779;-66
2022/06/16 07:41:48;;;;;;;2.67;1.98;;;23.30;59.00;23.40;100709.00;;;;4998803;27;88966;-66
2022/06/16 07:44:16;;;;;;;1.95;1.75;;;23.20;59.10;23.30;100721.00;;;;5005463;27;88451;-67
2022/06/16 07:46:44;;;;;;;1.70;1.52;;;23.10;59.20;23.10;100726.00;;;;4985459;28;89709;-68
2022/06/16 07:49:22;;;;;;;2.28;1.52;;;23.00;59.90;22.90;100729.00;;;;4984394;27;87886;-65
2022/06/16 07:51:50;;;;;;;4.70;2.50;;;22.80;59.50;22.60;100722.00;;;;5009733;27;89241;-69
2022/06/16 07:54:23;;;;;;;2.28;1.58;;;22.60;64.70;21.60;100709.00;;;;5004879;27;95475;-67
2022/06/16 07:56:50;;;;;;;2.83;2.08;;;21.90;67.60;20.70;100711.00;;;;5016462;27;87778;-68
2022/06/16 07:59:16;;;;;;;3.92;2.08;;;21.10;70.70;20.10;100700.00;;;;5007178;27;87672;-68
2022/06/16 08:01:48;;;;;;;2.40;2.10;;;20.40;73.50;19.70;100700.00;;;;5013569;27;116584;-68
2022/06/16 08:04:15;;;;;;;2.40;2.20;;;19.90;76.60;19.60;100697.00;;;;5013115;27;88974;-68
2022/06/16 08:06:41;;;;;;;2.35;1.88;;;19.70;79.60;19.70;100709.00;;;;5015491;27;87718;-67
2022/06/16 08:09:27;;;;;;;2.55;1.77;;;19.60;82.20;19.80;100721.00;;;;5024712;27;87336;-68
2022/06/16 08:12:03;;;;;;;1.83;1.70;;;19.70;84.40;19.90;100724.00;;;;5016053;27;87815;-66
2022/06/16 08:14:30;;;;;;;2.08;1.83;;;19.70;90.00;20.10;100728.00;;;;4995730;27;87853;-66
2022/06/16 08:16:56;;;;;;;1.90;1.80;;;19.80;90.30;20.30;100721.00;;;;4994991;28;88511;-66
2022/06/16 08:19:22;;;;;;;1.98;1.88;;;20.00;90.80;20.50;100719.00;;;;4995296;27;87750;-66
2022/06/16 08:21:48;;;;;;;2.13;1.90;;;20.20;90.80;20.60;100718.00;;;;4977562;28;107306;-66
2022/06/16 08:24:17;;;;;;;2.58;2.28;;;20.40;90.60;20.90;100715.00;;;;4996674;27;93517;-66
2022/06/16 08:26:44;;;;;;;4.07;2.28;;;20.50;90.40;21.10;100707.00;;;;5001102;27;96886;-66
2022/06/16 08:29:14;;;;;;;3.63;2.13;;;20.70;90.50;21.30;100709.00;;;;4996646;27;87743;-66
2022/06/16 08:31:40;;;;;;;4.13;2.28;;;20.90;89.30;21.60;100704.00;;;;4987516;28;88022;-66
2022/06/16 08:34:06;;;;;;;4.65;2.25;;;21.20;89.00;21.90;100703.00;;;;5002272;27;117367;-67
2022/06/16 08:36:32;;;;;;;1.75;1.65;;;21.50;88.50;22.20;100696.00;;;;5014277;27;111151;-68
2022/06/16 08:38:58;;;;;;;2.83;2.45;;;21.70;87.60;22.50;100710.00;;;;4990089;28;95013;-68
2022/06/16 08:41:37;;;;;;;2.53;2.15;;;22.00;87.20;22.80;100711.00;;;;4996987;27;118717;-68
2022/06/16 08:44:20;;;;;;;2.72;1.92;;;22.40;84.30;23.10;100728.00;;;;4993389;27;89177;-67
2022/06/16 08:47:18;;;;;;;2.20;1.92;;;22.70;82.80;23.40;100725.00;;;;4995546;28;97995;-67
2022/06/16 08:50:00;;;;;;;2.15;1.98;;;22.90;81.90;23.50;100727.00;;;;4998302;27;100096;-68
2022/06/16 08:52:46;;;;;;;1.98;1.77;;;23.20;80.10;23.70;100732.00;;;;5013643;27;88258;-67
2022/06/16 08:55:59;;;;;;;2.05;1.65;;;23.30;79.00;24.00;100716.00;;;;4992532;28;108970;-67
2022/06/16 08:58:44;;;;;;;9.05;2.17;;;23.60;77.80;24.30;100716.00;;;;4984162;28;87716;-67
2022/06/16 09:01:31;;;;;;;2.97;2.28;;;23.90;76.10;24.50;100715.00;;;;4998324;28;87247;-67
2022/06/16 09:04:26;;;;;;;1.60;1.50;;;24.10;74.20;24.80;100711.00;;;;4978678;28;109698;-67
2022/06/16 09:06:59;;;;;;;1.70;1.60;;;24.40;72.70;25.20;100727.00;;;;4979397;28;99920;-67
2022/06/16 09:10:16;;;;;;;2.92;2.55;;;24.70;71.40;25.60;100727.00;;;;5000664;27;88683;-66
2022/06/16 09:13:03;;;;;;;2.10;1.83;;;25.10;69.20;25.80;100730.00;;;;4998105;27;87822;-65
2022/06/16 09:15:44;;;;;;;4.15;1.95;;;25.40;66.90;25.90;100730.00;;;;5019502;27;87972;-66
2022/06/16 09:18:47;;;;;;;2.17;1.92;;;25.50;65.70;26.20;100724.00;;;;5015930;27;87899;-69
2022/06/16 09:21:36;;;;;;;2.80;1.90;;;25.80;64.70;26.50;100708.00;;;;5001263;28;94947;-67
2022/06/16 09:24:47;;;;;;;3.20;1.33;;;26.10;63.00;27.10;100723.00;;;;5003358;27;87896;-70
2022/06/16 09:27:25;;;;;;;3.40;1.35;;;26.50;61.30;27.60;100721.00;;;;5010172;27;87755;-68
2022/06/16 09:30:08;;;;;;;3.15;1.58;;;27.10;59.70;28.20;100713.00;;;;5015696;27;87202;-70
2022/06/16 09:32:58;;;;;;;1.90;1.23;;;27.60;58.60;28.90;100727.00;;;;5018128;27;87747;-72
2022/06/16 09:35:33;;;;;;;2.38;1.75;;;28.30;57.00;29.40;100723.00;;;;5012311;27;87869;-69
2022/06/16 09:38:05;;;;;;;2.10;1.65;;;28.80;55.70;29.70;100727.00;;;;5016379;27;88990;-69
2022/06/16 09:40:47;;;;;;;2.05;1.58;;;29.10;53.90;29.90;100738.00;;;;5014004;27;89459;-69
2022/06/16 09:43:28;;;;;;;1.85;1.45;;;29.40;52.90;30.20;100736.00;;;;4997962;27;103516;-71
2022/06/16 09:46:07;;;;;;;5.13;1.95;;;29.60;52.50;30.40;100743.00;;;;5012553;27;87588;-71
2022/06/16 09:48:47;;;;;;;2.20;1.58;;;29.90;51.80;30.50;100740.00;;;;5000002;27;89249;-69
2022/06/16 09:51:25;;;;;;;1.58;1.35;;;30.10;50.80;30.40;100753.00;;;;5015595;27;109248;-69
2022/06/16 09:54:00;;;;;;;1.83;1.67;;;30.00;50.00;30.30;100751.00;;;;5013282;27;103243;-69
2022/06/16 09:56:34;;;;;;;1.63;1.42;;;29.90;50.40;30.50;100758.00;;;;4998756;27;92770;-69
2022/06/16 09:59:10;;;;;;;2.33;1.15;;;30.00;49.90;30.70;100757.00;;;;5005971;27;118741;-72
2022/06/16 10:01:44;;;;;;;1.88;1.48;;;30.20;48.50;30.80;100753.00;;;;5019456;27;88688;-71
2022/06/16 10:04:10;;;;;;;2.40;1.77;;;30.30;48.00;30.60;100754.00;;;;5011441;27;101046;-72
2022/06/16 10:06:53;;;;;;;1.00;0.90;;;30.30;46.70;30.30;100749.00;;;;5000957;28;108151;-71
2022/06/16 10:09:26;;;;;;;0.90;0.90;;;30.00;46.00;30.00;100754.00;;;;5012095;27;87664;-70
2022/06/16 10:12:08;;;;;;;2.17;1.27;;;29.80;46.30;29.90;100756.00;;;;5019268;27;87892;-69
2022/06/16 10:15:08;;;;;;;2.55;1.48;;;29.50;46.80;29.60;100756.00;;;;5017758;27;101440;-70
2022/06/16 10:17:36;;;;;;;2.30;1.30;;;29.40;46.90;29.30;100761.00;;;;5016625;27;87602;-69
2022/06/16 10:20:04;;;;;;;1.75;1.33;;;29.10;47.00;29.00;100775.00;;;;5019636;27;88396;-71
2022/06/16 10:22:32;;;;;;;1.85;1.52;;;28.80;47.10;28.70;100776.00;;;;5019704;27;87753;-70
2022/06/16 10:25:13;;;;;;;1.60;1.50;;;28.50;47.90;28.30;100773.00;;;;5016676;27;87851;-69
2022/06/16 10:27:50;;;;;;;1.88;1.60;;;28.20;48.40;28.00;100778.00;;;;5015689;27;94247;-69
2022/06/16 10:30:32;;;;;;;6.55;1.83;;;27.90;49.30;27.70;100787.00;;;;5000723;27;89802;-69
2022/06/16 10:33:24;;;;;;;2.35;1.65;;;27.50;49.90;27.50;100780.00;;;;5020260;27;104916;-71
2022/06/16 10:36:14;;;;;;;2.50;1.90;;;27.40;50.70;27.30;100782.00;;;;4999299;27;87619;-69
2022/06/16 10:39:05;;;;;;;1.80;1.55;;;27.20;51.00;27.10;100784.00;;;;5015804;27;98023;-71
2022/06/16 10:41:50;;;;;;;2.53;1.95;;;26.90;51.40;26.90;100802.00;;;;5016460;27;88045;-69
2022/06/16 10:44:18;;;;;;;1.65;1.55;;;26.70;51.90;26.70;100791.00;;;;5013094;27;88238;-73
2022/06/16 10:46:52;;;;;;;3.35;1.80;;;26.50;52.30;26.60;100775.00;;;;4997014;27;97164;-70
2022/06/16 10:49:39;;;;;;;1.75;1.40;;;26.40;52.60;26.50;100778.00;;;;5001434;27;87172;-68
2022/06/16 10:52:09;;;;;;;1.90;1.30;;;26.30;52.80;26.50;100783.00;;;;5014089;27;87885;-70
2022/06/16 10:55:03;;;;;;;1.55;1.40;;;26.20;52.90;26.60;100776.00;;;;5016098;27;88251;-70
2022/06/16 10:57:33;;;;;;;1.40;1.30;;;26.20;52.90;26.70;100773.00;;;;4994587;27;88810;-70
2022/06/16 11:00:22;;;;;;;1.40;1.30;;;26.40;52.60;26.90;100764.00;;;;5015837;27;88027;-70
2022/06/16 11:03:03;;;;;;;2.03;1.75;;;26.50;52.50;27.10;100755.00;;;;5016856;27;87725;-73
2022/06/16 11:05:57;;;;;;;2.92;1.60;;;26.70;52.50;27.30;100755.00;;;;5015687;27;99065;-72
2022/06/16 11:08:37;;;;;;;2.63;1.73;;;26.80;52.30;27.50;100768.00;;;;5025094;27;87944;-72
2022/06/16 11:11:04;;;;;;;2.03;1.80;;;27.00;52.00;27.70;100782.00;;;;4998265;27;87551;-72
2022/06/16 11:13:38;;;;;;;1.60;1.50;;;27.20;51.60;28.10;100764.00;;;;5003407;27;88562;-69
2022/06/16 11:16:12;;;;;;;3.38;1.70;;;27.50;51.30;28.50;100769.00;;;;5014468;27;110885;-69
2022/06/16 11:18:39;;;;;;;2.60;1.73;;;27.90;50.90;29.00;100783.00;;;;5010666;27;87873;-69
2022/06/16 11:21:23;;;;;;;1.45;1.10;;;28.30;50.20;29.60;100771.00;;;;4998269;27;87804;-69
2022/06/16 11:23:54;;;;;;;1.10;0.93;;;28.90;49.60;30.10;100775.00;;;;4998572;27;105581;-71
2022/06/16 11:26:24;;;;;;;2.13;1.42;;;29.30;48.80;30.60;100775.00;;;;4998598;27;89415;-70
2022/06/16 11:29:01;;;;;;;3.88;1.98;;;29.90;47.80;31.10;100768.00;;;;5007106;27;87965;-72
2022/06/16 11:32:14;;;;;;;4.57;1.92;;;30.40;46.70;31.80;100775.00;;;;5013872;27;88182;-71
2022/06/16 11:34:42;;;;;;;3.30;1.40;;;31.00;45.70;32.20;100771.00;;;;4994123;27;89366;-72